Date,TemperatureHighF,TemperatureAvgF,TemperatureLowF,DewpointHighF,DewpointAvgF,DewpointLowF,HumidityHigh,HumidityAvg,HumidityLow,PressureMaxIn,PressureMinIn,WindSpeedMaxMPH,WindSpeedAvgMPH,GustSpeedMaxMPH,PrecipitationSumIn
2013-2-1,23.8,21.3,19.2,18.4,14.7,10.1,91,76,59,30.19,29.69,11,6,14,0.00
2013-2-2,23.1,19.3,14.1,16.0,12.0,7.9,88,73,63,30.20,29.99,9,5,11,0.00
2013-2-3,26.8,19.4,10.4,18.3,14.0,8.0,93,80,57,29.99,29.80,8,2,11,0.00
2013-2-4,23.7,20.9,17.9,16.3,13.0,10.3,87,71,57,29.95,29.85,9,4,16,0.00
2013-2-5,27.3,22.1,15.7,21.3,16.7,12.8,90,80,68,29.99,29.86,7,2,10,0.00
2013-2-6,28.8,24.0,14.6,25.6,17.0,9.3,90,75,53,30.40,29.88,13,5,22,0.00
2013-2-7,32.7,24.1,13.6,23.8,16.4,11.1,91,73,59,30.47,30.12,12,6,16,0.00
2013-2-8,34.5,30.3,20.2,33.0,26.4,18.2,96,86,63,30.11,29.79,11,7,14,0.05
2013-2-9,22.4,18.8,10.2,19.3,16.3,7.4,93,90,84,30.43,30.08,5,2,9,0.00
2013-2-10,35.7,19.6,-0.2,25.8,14.0,-4.0,92,80,66,30.44,30.00,12,5,14,0.01
2013-2-11,49.1,39.0,35.0,42.2,31.3,25.5,84,74,64,30.00,29.56,16,9,24,0.14
2013-2-12,36.7,34.2,32.2,31.3,28.2,25.2,91,79,65,29.96,29.68,14,8,23,0.00
2013-2-13,38.5,31.8,22.8,27.3,25.1,21.1,95,77,57,29.92,29.73,6,2,8,0.00
2013-2-14,39.0,33.0,21.7,35.4,28.7,20.0,95,84,66,29.93,29.79,8,4,11,0.15
2013-2-15,39.3,35.4,27.2,36.0,25.8,18.0,94,68,54,30.05,29.78,12,7,21,0.00
2013-2-16,28.0,24.8,21.4,21.2,18.3,16.0,83,76,67,30.06,29.93,8,2,9,0.00
2013-2-17,22.8,17.1,13.5,18.7,12.2,5.8,91,81,67,30.18,29.91,12,6,18,0.00
2013-2-18,30.4,21.2,12.9,18.9,13.2,8.2,89,72,56,30.31,29.96,9,4,14,0.04
2013-2-19,42.1,34.8,27.6,35.7,26.0,19.0,87,71,57,29.96,29.55,12,8,20,0.06
2013-2-20,27.5,23.9,21.2,20.9,16.2,12.8,82,72,60,30.04,29.75,14,9,23,0.00
2013-2-21,23.0,19.1,15.2,18.5,14.5,9.4,89,82,74,30.43,30.02,14,7,25,0.00
2013-2-22,35.7,27.8,18.5,29.4,23.1,15.4,93,83,70,30.42,30.03,12,6,16,0.00
2013-2-23,39.7,35.6,32.9,34.2,30.9,26.2,92,83,76,30.03,29.87,11,5,14,0.07
2013-2-24,34.4,32.3,31.2,29.6,26.9,24.7,91,81,74,30.05,29.85,8,4,13,0.03
2013-2-25,37.5,33.9,29.0,30.3,28.7,26.4,90,81,65,30.24,30.05,6,2,10,0.00
2013-2-26,42.7,34.4,24.0,32.9,28.7,22.3,95,81,60,30.25,29.88,15,7,22,0.04
2013-2-27,36.7,34.5,33.6,35.4,33.2,32.0,97,95,92,29.85,29.57,12,4,16,0.96
2013-2-28,38.7,35.5,33.7,34.2,33.4,32.8,97,92,80,29.71,29.54,6,3,10,0.55